Time;durP1;ratioP1;P1;durP2;ratioP2;P2;SDS_P1;SDS_P2;PMS_P1;PMS_P2;Temp;Humidity;BMP_temperature;BMP_pressure;BME280_temperature;BME280_humidity;BME280_pressure;Samples;Min_cycle;Max_cycle;Signal;HPM_P1;HPM_P2
2022/12/05 00:02:20;;;;;;;9.00;6.03;;;19.60;52.40;;;;;;4975401;28;20038;-57
2022/12/05 00:04:46;;;;;;;8.95;6.07;;;19.50;52.30;;;;;;4976908;28;20130;-57
2022/12/05 00:07:11;;;;;;;9.10;5.72;;;19.50;52.30;;;;;;4975280;28;20050;-57
2022/12/05 00:09:37;;;;;;;10.43;6.50;;;19.50;52.30;;;;;;4974927;28;20490;-57
2022/12/05 00:12:03;;;;;;;9.43;5.88;;;19.50;52.30;;;;;;4976493;28;20598;-57
2022/12/05 00:14:28;;;;;;;9.02;5.85;;;19.50;52.30;;;;;;4976489;28;20055;-57
2022/12/05 00:16:54;;;;;;;9.43;6.10;;;19.50;52.30;;;;;;4975832;28;20039;-57
2022/12/05 00:19:19;;;;;;;8.25;5.22;;;19.50;52.30;;;;;;4976533;28;20043;-57
2022/12/05 00:21:45;;;;;;;8.93;6.28;;;19.50;52.30;;;;;;4976478;28;20043;-57
2022/12/05 00:24:12;;;;;;;9.13;5.63;;;19.50;52.30;;;;;;4975433;28;20595;-57
2022/12/05 00:26:37;;;;;;;9.77;5.60;;;19.50;52.30;;;;;;4976455;28;20438;-57
2022/12/05 00:29:03;;;;;;;8.35;5.07;;;19.50;52.30;;;;;;4976109;28;20481;-57
2022/12/05 00:31:29;;;;;;;8.73;5.82;;;19.50;52.40;;;;;;4975659;28;20137;-57
2022/12/05 00:33:54;;;;;;;8.45;5.65;;;19.40;52.30;;;;;;4975041;28;20402;-57
2022/12/05 00:36:22;;;;;;;8.50;5.60;;;19.40;52.30;;;;;;4975409;28;20126;-57
2022/12/05 00:38:47;;;;;;;9.32;5.80;;;19.40;52.30;;;;;;4975826;28;20050;-57
2022/12/05 00:41:21;;;;;;;8.35;5.53;;;19.40;52.20;;;;;;4976017;28;20047;-57
2022/12/05 00:43:47;;;;;;;8.70;5.80;;;19.40;52.30;;;;;;4975240;28;20101;-57
2022/12/05 00:46:15;;;;;;;9.88;5.20;;;19.40;52.30;;;;;;4975968;28;20572;-58
2022/12/05 00:48:41;;;;;;;;;;;19.40;52.20;;;;;;4976192;28;20418;-57
2022/12/05 00:51:11;;;;;;;8.77;5.53;;;19.40;52.20;;;;;;4975462;28;19922;-57
2022/12/05 00:53:37;;;;;;;8.60;5.72;;;19.40;52.30;;;;;;4975939;28;20505;-58
2022/12/05 00:56:07;;;;;;;8.90;5.50;;;19.30;52.20;;;;;;4975815;28;20046;-57
2022/12/05 00:58:33;;;;;;;8.85;5.85;;;19.30;52.20;;;;;;4975194;28;20058;-57
2022/12/05 01:01:12;;;;;;;9.77;5.80;;;19.30;52.20;;;;;;4975681;28;20051;-57
2022/12/05 01:03:37;;;;;;;8.43;5.55;;;19.30;52.20;;;;;;4975647;28;20050;-57
2022/12/05 01:06:04;;;;;;;8.70;5.43;;;19.30;52.10;;;;;;4975190;28;20043;-57
2022/12/05 01:08:30;;;;;;;8.57;5.80;;;19.30;52.10;;;;;;4975508;28;20147;-57
2022/12/05 01:10:56;;;;;;;8.57;5.78;;;19.30;52.10;;;;;;4975853;28;20043;-57
2022/12/05 01:13:21;;;;;;;8.35;5.40;;;19.30;52.10;;;;;;4974067;28;20042;-58
2022/12/05 01:15:47;;;;;;;8.95;5.70;;;19.30;52.10;;;;;;4975287;28;20043;-57
2022/12/05 01:18:13;;;;;;;8.63;5.45;;;19.20;52.00;;;;;;4975214;28;20252;-57
2022/12/05 01:20:39;;;;;;;9.00;5.47;;;19.20;52.00;;;;;;4974493;28;20395;-57
2022/12/05 01:23:05;;;;;;;7.20;4.97;;;19.20;52.00;;;;;;4975340;28;20478;-57
2022/12/05 01:25:30;;;;;;;8.63;5.60;;;19.20;52.00;;;;;;4974162;28;20093;-58
2022/12/05 01:27:56;;;;;;;9.18;6.05;;;19.20;52.00;;;;;;4975531;28;20386;-57
2022/12/05 01:30:21;;;;;;;7.68;5.18;;;19.20;52.00;;;;;;4975034;28;20485;-57
2022/12/05 01:32:47;;;;;;;9.77;5.45;;;19.20;52.00;;;;;;4974325;28;20045;-58
2022/12/05 01:35:13;;;;;;;8.18;5.30;;;19.20;52.00;;;;;;4975156;28;20090;-57
2022/12/05 01:37:38;;;;;;;7.63;5.15;;;19.20;52.00;;;;;;4974995;28;20070;-57
2022/12/05 01:40:05;;;;;;;8.32;5.43;;;19.20;52.10;;;;;;4974090;28;20154;-57
2022/12/05 01:42:30;;;;;;;7.22;5.15;;;19.20;52.00;;;;;;4974359;28;20078;-57
2022/12/05 01:45:06;;;;;;;8.23;5.38;;;19.10;52.00;;;;;;4975176;28;20098;-57
2022/12/05 01:47:33;;;;;;;8.05;5.13;;;19.20;52.00;;;;;;4974134;28;20384;-58
2022/12/05 01:49:58;;;;;;;7.68;5.10;;;19.10;52.00;;;;;;4973941;28;20057;-57
2022/12/05 01:52:25;;;;;;;8.85;5.55;;;19.10;52.00;;;;;;4974522;28;20402;-57
2022/12/05 01:54:53;;;;;;;7.30;5.05;;;19.10;51.90;;;;;;4956165;28;20113;-58
2022/12/05 01:57:18;;;;;;;7.87;5.77;;;19.10;52.00;;;;;;4973495;28;20046;-57
2022/12/05 01:59:48;;;;;;;8.15;5.22;;;19.10;51.90;;;;;;4973424;28;20050;-58
2022/12/05 02:02:13;;;;;;;9.77;5.72;;;19.10;52.00;;;;;;4973974;28;20105;-57
2022/12/05 02:05:02;;;;;;;7.35;4.90;;;19.00;51.90;;;;;;4973268;28;20039;-58
2022/12/05 02:07:28;;;;;;;9.90;5.70;;;19.10;52.00;;;;;;4973615;28;20421;-57
2022/12/05 02:09:54;;;;;;;7.45;4.78;;;19.00;52.00;;;;;;4940587;28;20043;-57
2022/12/05 02:12:19;;;;;;;7.80;5.10;;;19.00;51.90;;;;;;4974358;28;20126;-58
2022/12/05 02:15:04;;;;;;;7.88;4.97;;;19.00;52.00;;;;;;4973713;28;20125;-57
2022/12/05 02:17:35;;;;;;;9.18;5.95;;;19.00;51.90;;;;;;4973345;28;20554;-57
2022/12/05 02:20:26;;;;;;;8.20;5.10;;;19.00;52.00;;;;;;4974490;28;20478;-57
2022/12/05 02:23:21;;;;;;;8.68;5.55;;;19.00;51.90;;;;;;4972407;28;20059;-58
2022/12/05 02:26:11;;;;;;;7.88;5.47;;;19.00;51.90;;;;;;4972354;28;20046;-57
2022/12/05 02:28:57;;;;;;;7.40;5.55;;;19.00;51.90;;;;;;4973090;28;20054;-57
2022/12/05 02:31:27;;;;;;;7.75;5.35;;;19.00;51.90;;;;;;4973911;28;20451;-57
2022/12/05 02:34:19;;;;;;;8.43;5.05;;;19.00;51.90;;;;;;4974166;28;20411;-57
2022/12/05 02:37:15;;;;;;;7.75;5.07;;;19.00;51.90;;;;;;4958541;28;20046;-57
2022/12/05 02:40:31;;;;;;;7.82;5.20;;;19.00;52.00;;;;;;4973120;28;20074;-57
2022/12/05 02:42:59;;;;;;;7.85;5.38;;;19.00;51.90;;;;;;4923737;28;20609;-57
2022/12/05 02:45:24;;;;;;;7.55;5.30;;;19.00;51.90;;;;;;4974028;28;20054;-57
2022/12/05 02:47:51;;;;;;;8.60;5.55;;;19.00;51.90;;;;;;4972586;28;20047;-57
2022/12/05 02:50:28;;;;;;;8.93;5.68;;;19.00;51.90;;;;;;4973253;28;20042;-57
2022/12/05 02:52:54;;;;;;;8.10;4.88;;;19.00;51.90;;;;;;4972816;28;20141;-57
2022/12/05 02:55:20;;;;;;;8.63;5.10;;;19.00;51.90;;;;;;4956492;28;20498;-57
2022/12/05 02:57:50;;;;;;;7.57;5.50;;;19.00;51.90;;;;;;4971869;28;20137;-57
2022/12/05 03:00:16;;;;;;;7.78;4.97;;;19.00;51.90;;;;;;4973643;28;20125;-57
2022/12/05 03:02:41;;;;;;;8.13;4.97;;;19.00;51.90;;;;;;4973374;28;20121;-57
2022/12/05 03:05:13;;;;;;;7.85;5.00;;;19.00;51.90;;;;;;4971556;28;20051;-57
2022/12/05 03:07:38;;;;;;;8.63;5.97;;;19.00;51.90;;;;;;4973974;28;20046;-57
2022/12/05 03:10:05;;;;;;;8.07;5.00;;;19.00;51.90;;;;;;4972221;28;20553;-57
2022/12/05 03:12:33;;;;;;;8.93;5.75;;;19.00;51.90;;;;;;4955557;28;20046;-57
2022/12/05 03:15:06;;;;;;;8.85;5.38;;;19.00;51.90;;;;;;4955936;28;20035;-57
2022/12/05 03:17:34;;;;;;;8.35;5.20;;;19.00;51.90;;;;;;4973462;28;20505;-57
2022/12/05 03:20:03;;;;;;;;;;;19.00;51.90;;;;;;4956259;28;20491;-57
2022/12/05 03:22:45;;;;;;;9.30;5.82;;;19.00;51.90;;;;;;4972349;28;19926;-57
2022/12/05 03:25:10;;;;;;;9.15;5.95;;;19.00;51.90;;;;;;4955587;28;20055;-57
2022/12/05 03:27:41;;;;;;;8.48;5.00;;;19.00;51.90;;;;;;4973626;28;20050;-57
2022/12/05 03:30:09;;;;;;;8.48;5.47;;;19.00;51.90;;;;;;4973282;28;20513;-57
2022/12/05 03:32:56;;;;;;;8.80;5.23;;;19.00;51.90;;;;;;4955716;28;20093;-57
2022/12/05 03:35:23;;;;;;;8.77;5.60;;;19.00;51.90;;;;;;4973523;28;20050;-57
2022/12/05 03:38:05;;;;;;;8.50;5.20;;;19.00;51.90;;;;;;4977483;28;20046;-57
2022/12/05 03:40:50;;;;;;;8.23;5.07;;;19.00;51.90;;;;;;4974929;28;20513;-57
2022/12/05 03:43:17;;;;;;;8.18;5.50;;;19.00;51.90;;;;;;4975555;28;20054;-57
2022/12/05 03:45:47;;;;;;;8.57;5.30;;;19.10;51.90;;;;;;4976884;28;20090;-57
2022/12/05 03:48:17;;;;;;;7.85;5.18;;;19.10;51.90;;;;;;4959317;28;20134;-57
2022/12/05 03:50:43;;;;;;;7.60;5.53;;;19.10;51.90;;;;;;4976100;28;20051;-57
2022/12/05 03:53:15;;;;;;;7.13;4.97;;;19.10;51.80;;;;;;4958731;28;20043;-57
2022/12/05 03:55:40;;;;;;;9.07;5.78;;;19.10;51.80;;;;;;4975817;28;20486;-57
2022/12/05 03:58:09;;;;;;;8.30;5.30;;;19.10;51.80;;;;;;4959548;28;20130;-57
2022/12/05 04:00:36;;;;;;;;;;;19.10;51.80;;;;;;4975496;28;20622;-57
2022/12/05 04:03:26;;;;;;;8.50;5.40;;;19.10;51.80;;;;;;4975435;28;19926;-57
2022/12/05 04:05:53;;;;;;;7.53;5.05;;;19.10;51.80;;;;;;4975948;28;20043;-57
2022/12/05 04:08:26;;;;;;;8.63;5.38;;;19.10;52.50;;;;;;4974872;28;20050;-57
2022/12/05 04:10:54;;;;;;;7.63;4.72;;;19.10;51.80;;;;;;4976996;28;20039;-57
2022/12/05 04:13:27;;;;;;;8.45;5.28;;;19.20;51.80;;;;;;4975246;28;20117;-57
2022/12/05 04:18:41;;;;;;;;;;;19.20;51.90;;;;;;4962827;28;20050;-57
2022/12/05 04:25:31;;;;;;;8.48;5.25;;;19.20;51.80;;;;;;4975811;28;20043;-57
2022/12/05 04:26:39;;;;;;;9.50;5.57;;;19.20;51.80;;;;;;4976446;28;20055;-56
2022/12/05 04:29:26;;;;;;;7.85;5.03;;;19.20;51.80;;;;;;4958690;28;20046;-57
2022/12/05 04:31:55;;;;;;;7.20;4.82;;;19.20;51.90;;;;;;4976708;28;20118;-57
2022/12/05 04:34:21;;;;;;;7.38;5.15;;;19.30;51.90;;;;;;4959340;28;20058;-57
2022/12/05 04:36:56;;;;;;;7.07;4.80;;;19.30;51.90;;;;;;4958207;28;20046;-57
2022/12/05 04:40:09;;;;;;;7.20;4.88;;;19.30;51.90;;;;;;4974857;28;20046;-57
2022/12/05 04:42:35;;;;;;;8.80;5.10;;;19.30;51.90;;;;;;4972979;28;20443;-57
2022/12/05 04:45:08;;;;;;;9.63;5.57;;;19.30;51.90;;;;;;4973865;28;20521;-57
2022/12/05 04:47:39;;;;;;;7.80;4.55;;;19.40;51.90;;;;;;4973775;28;20059;-57
2022/12/05 04:50:06;;;;;;;6.85;4.70;;;19.30;52.30;;;;;;4958070;28;20502;-58
2022/12/05 04:52:32;;;;;;;7.10;4.80;;;19.40;51.90;;;;;;4958389;28;20051;-57
2022/12/05 04:55:00;;;;;;;8.77;5.20;;;19.40;51.90;;;;;;4958158;28;20548;-57
2022/12/05 04:57:35;;;;;;;7.47;5.07;;;19.40;51.90;;;;;;4973905;28;20058;-57
2022/12/05 05:00:00;;;;;;;7.90;4.95;;;19.40;51.90;;;;;;4974812;28;20042;-57
2022/12/05 05:02:39;;;;;;;8.90;5.53;;;19.40;51.90;;;;;;4971094;28;20107;-57
2022/12/05 05:05:06;;;;;;;7.15;4.68;;;19.40;51.90;;;;;;4957367;28;20053;-57
2022/12/05 05:07:32;;;;;;;8.02;5.03;;;19.40;51.90;;;;;;4957964;28;20039;-57
2022/12/05 05:09:58;;;;;;;7.32;5.30;;;19.40;51.90;;;;;;4957927;28;20093;-57
2022/12/05 05:12:23;;;;;;;7.93;4.75;;;19.40;51.80;;;;;;4974861;28;20064;-57
2022/12/05 05:14:49;;;;;;;7.57;4.97;;;19.40;51.90;;;;;;4975417;28;20395;-56
2022/12/05 05:17:14;;;;;;;8.23;4.72;;;19.50;51.90;;;;;;4975120;28;20383;-57
2022/12/05 05:19:40;;;;;;;7.38;4.82;;;19.50;51.90;;;;;;4974826;28;20035;-58
2022/12/05 05:22:05;;;;;;;7.68;4.95;;;19.50;52.00;;;;;;4975483;28;20124;-56
2022/12/05 05:24:31;;;;;;;10.13;5.03;;;19.50;52.10;;;;;;4972291;28;20043;-57
2022/12/05 05:26:56;;;;;;;7.97;4.90;;;19.50;52.10;;;;;;4974514;28;20046;-57
2022/12/05 05:29:22;;;;;;;7.70;5.05;;;19.60;52.10;;;;;;4974615;28;20392;-57
2022/12/05 05:31:48;;;;;;;7.28;4.63;;;19.60;52.10;;;;;;4973760;28;20456;-57
2022/12/05 05:34:14;;;;;;;10.20;5.28;;;19.60;52.00;;;;;;4975282;28;20042;-57
2022/12/05 05:36:40;;;;;;;8.35;4.93;;;19.60;52.20;;;;;;4975243;28;20513;-57
2022/12/05 05:39:09;;;;;;;8.43;4.72;;;19.60;52.20;;;;;;4974350;28;20051;-57
2022/12/05 05:41:34;;;;;;;;;;;19.60;52.20;;;;;;4958349;28;20518;-57
2022/12/05 05:44:00;;;;;;;8.57;5.25;;;19.60;52.30;;;;;;4974809;28;19922;-57
2022/12/05 05:46:28;;;;;;;7.85;4.65;;;19.60;52.20;;;;;;4974071;28;20101;-57
2022/12/05 05:48:53;;;;;;;8.20;4.70;;;19.60;52.20;;;;;;4974961;28;20057;-57
2022/12/05 05:51:19;;;;;;;8.60;4.60;;;19.70;52.30;;;;;;4974626;28;20141;-57
2022/12/05 05:53:45;;;;;;;10.10;4.90;;;19.70;52.40;;;;;;4972877;28;20053;-57
2022/12/05 05:56:15;;;;;;;7.32;4.43;;;19.70;52.50;;;;;;4974410;28;20179;-57
2022/12/05 05:58:41;;;;;;;7.78;4.65;;;19.70;52.50;;;;;;4983548;28;20081;-57
2022/12/05 06:01:11;;;;;;;7.07;4.30;;;19.70;52.60;;;;;;4983206;28;20374;-57
2022/12/05 06:03:37;;;;;;;8.93;4.90;;;19.70;52.60;;;;;;4974717;28;20054;-57
2022/12/05 06:06:05;;;;;;;8.68;4.80;;;19.80;52.70;;;;;;4974830;28;20043;-57
2022/12/05 06:08:32;;;;;;;9.45;4.90;;;19.80;52.80;;;;;;4972237;28;20039;-57
2022/12/05 06:10:58;;;;;;;7.43;4.60;;;19.80;52.90;;;;;;4974713;28;20104;-57
2022/12/05 06:13:23;;;;;;;14.07;4.90;;;19.80;52.90;;;;;;4974106;28;20491;-57
2022/12/05 06:15:49;;;;;;;7.72;4.65;;;19.80;52.90;;;;;;4973928;28;20494;-57
2022/12/05 06:18:14;;;;;;;7.28;4.43;;;19.80;53.00;;;;;;4973965;28;20549;-58
2022/12/05 06:20:40;;;;;;;9.15;4.78;;;19.80;53.00;;;;;;4974573;28;20065;-57
2022/12/05 06:23:05;;;;;;;8.13;4.35;;;19.80;53.00;;;;;;4973982;28;20035;-58
2022/12/05 06:25:31;;;;;;;7.80;3.88;;;19.80;53.00;;;;;;4974106;28;20121;-58
2022/12/05 06:27:56;;;;;;;7.22;4.30;;;19.90;53.10;;;;;;4973562;28;20116;-58
2022/12/05 06:30:22;;;;;;;7.13;4.40;;;19.90;53.20;;;;;;4973622;28;20042;-58
2022/12/05 06:32:47;;;;;;;9.57;4.63;;;19.90;53.20;;;;;;4974434;28;20039;-58
2022/12/05 06:35:16;;;;;;;7.70;4.50;;;19.90;53.20;;;;;;4973236;28;20513;-58
2022/12/05 06:37:42;;;;;;;7.15;4.15;;;19.90;53.20;;;;;;4974202;28;20078;-58
2022/12/05 06:40:08;;;;;;;8.88;4.97;;;19.90;53.40;;;;;;4973849;28;20514;-58
2022/12/05 06:42:34;;;;;;;8.13;4.72;;;19.90;53.40;;;;;;4973269;28;20063;-58
2022/12/05 06:45:00;;;;;;;7.63;4.63;;;19.90;53.40;;;;;;4974002;28;20105;-58
2022/12/05 06:47:25;;;;;;;10.02;4.78;;;19.90;53.40;;;;;;4973986;28;20046;-58
2022/12/05 06:49:51;;;;;;;7.57;4.40;;;20.00;53.50;;;;;;4973577;28;20105;-59
2022/12/05 06:52:16;;;;;;;6.43;3.95;;;20.00;53.50;;;;;;4974014;28;20105;-58
2022/12/05 06:54:42;;;;;;;6.32;3.88;;;20.00;53.50;;;;;;4974141;28;20454;-59
2022/12/05 06:57:08;;;;;;;6.75;4.22;;;20.00;53.50;;;;;;4972584;28;20502;-58
2022/12/05 06:59:34;;;;;;;6.78;4.53;;;20.00;53.50;;;;;;4973888;28;20454;-58
2022/12/05 07:01:59;;;;;;;5.43;3.60;;;20.10;53.50;;;;;;4973724;28;20502;-57
2022/12/05 07:04:25;;;;;;;7.88;4.85;;;20.10;53.50;;;;;;4972971;28;20100;-57
2022/12/05 07:06:51;;;;;;;7.13;4.00;;;20.00;53.50;;;;;;4973909;28;20046;-58
2022/12/05 07:09:18;;;;;;;7.78;4.32;;;20.10;53.50;;;;;;4973547;28;20093;-58
2022/12/05 07:11:50;;;;;;;6.38;3.63;;;20.00;53.50;;;;;;4972367;28;20395;-58
2022/12/05 07:14:16;;;;;;;6.70;4.18;;;20.10;53.40;;;;;;4973500;28;20046;-58
2022/12/05 07:16:42;;;;;;;7.43;3.60;;;20.10;53.20;;;;;;4967522;28;20096;-57
2022/12/05 07:19:09;;;;;;;6.82;3.63;;;20.10;53.30;;;;;;4970870;28;20066;-57
2022/12/05 07:21:34;;;;;;;7.32;4.10;;;20.00;53.20;;;;;;4962613;28;20145;-57
2022/12/05 07:24:00;;;;;;;7.93;3.80;;;20.10;53.30;;;;;;4967609;28;20550;-57
2022/12/05 07:26:25;;;;;;;7.30;3.78;;;20.10;53.40;;;;;;4966213;28;20038;-57
2022/12/05 07:28:53;;;;;;;6.85;4.13;;;20.10;53.50;;;;;;4973023;28;20093;-57
2022/12/05 07:31:21;;;;;;;6.65;3.75;;;20.10;53.50;;;;;;4972402;28;20158;-56
2022/12/05 07:33:47;;;;;;;6.87;4.33;;;20.10;53.50;;;;;;4973360;28;20130;-56
2022/12/05 07:36:19;;;;;;;6.20;4.03;;;20.10;53.50;;;;;;4973335;28;20035;-56
2022/12/05 07:38:45;;;;;;;7.93;4.28;;;20.10;53.50;;;;;;4972863;28;20054;-57
2022/12/05 07:41:24;;;;;;;5.47;3.53;;;20.10;53.50;;;;;;4972556;28;20406;-57
2022/12/05 07:43:50;;;;;;;5.20;3.00;;;20.20;53.50;;;;;;4971568;28;20067;-57
2022/12/05 07:46:16;;;;;;;6.85;4.03;;;20.10;53.40;;;;;;4971562;28;20055;-57
2022/12/05 07:48:42;;;;;;;5.97;3.72;;;20.10;53.50;;;;;;4973275;28;20042;-57
2022/12/05 07:51:08;;;;;;;9.32;3.50;;;20.10;53.50;;;;;;4973378;28;20493;-57
2022/12/05 07:53:33;;;;;;;6.22;3.38;;;20.10;53.50;;;;;;4972746;28;20050;-58
2022/12/05 07:56:00;;;;;;;5.30;3.47;;;20.10;53.30;;;;;;4973460;28;20430;-57
2022/12/05 07:58:27;;;;;;;6.10;3.63;;;20.20;53.40;;;;;;4973058;28;20051;-57
2022/12/05 08:00:52;;;;;;;5.80;3.33;;;20.10;53.30;;;;;;4972318;28;20047;-58
2022/12/05 08:03:18;;;;;;;6.20;3.30;;;20.10;53.20;;;;;;4983925;28;20117;-57
2022/12/05 08:05:43;;;;;;;7.43;3.22;;;20.10;53.20;;;;;;4992928;28;20473;-57
2022/12/05 08:08:09;;;;;;;5.70;3.30;;;20.10;53.20;;;;;;4992856;28;20129;-57
2022/12/05 08:10:34;;;;;;;4.93;3.08;;;20.10;53.20;;;;;;4974569;28;20050;-59
2022/12/05 08:13:00;;;;;;;7.03;3.38;;;20.10;53.30;;;;;;4972945;28;20062;-58
2022/12/05 08:15:25;;;;;;;5.22;2.83;;;20.10;53.30;;;;;;4971691;28;20070;-57
2022/12/05 08:17:51;;;;;;;7.95;3.20;;;20.20;53.40;;;;;;4973356;28;20093;-58
2022/12/05 08:20:17;;;;;;;5.07;3.33;;;20.10;53.40;;;;;;4973018;28;20046;-58
2022/12/05 08:22:42;;;;;;;6.60;2.92;;;20.10;53.40;;;;;;4973079;28;20047;-57
2022/12/05 08:25:08;;;;;;;5.03;2.95;;;20.10;53.50;;;;;;4976902;28;20039;-58
2022/12/05 08:27:34;;;;;;;4.63;2.60;;;20.10;53.50;;;;;;4976033;28;20055;-57
2022/12/05 08:29:59;;;;;;;6.53;2.90;;;20.10;53.50;;;;;;4976781;28;20098;-58
2022/12/05 08:32:26;;;;;;;4.47;2.40;;;20.10;53.50;;;;;;4976149;28;20051;-58
2022/12/05 08:34:51;;;;;;;5.95;3.00;;;20.20;53.60;;;;;;4983649;28;20046;-57
2022/12/05 08:37:17;;;;;;;6.07;2.78;;;20.10;53.50;;;;;;4986847;28;20474;-57
2022/12/05 08:39:42;;;;;;;4.50;2.63;;;20.10;53.60;;;;;;4995972;28;20046;-57
2022/12/05 08:42:08;;;;;;;8.05;3.05;;;20.10;53.50;;;;;;4994940;28;20058;-58
2022/12/05 08:44:33;;;;;;;4.85;2.80;;;20.20;53.60;;;;;;4995193;28;20045;-57
2022/12/05 08:46:59;;;;;;;5.57;3.13;;;20.10;53.50;;;;;;4995690;28;20113;-57
2022/12/05 08:49:25;;;;;;;4.63;2.60;;;20.10;53.60;;;;;;4994474;28;20391;-57
2022/12/05 08:51:50;;;;;;;4.47;2.70;;;20.20;53.60;;;;;;4995616;28;20390;-58
2022/12/05 08:54:16;;;;;;;5.80;2.60;;;20.20;53.60;;;;;;4995429;28;20042;-58
2022/12/05 08:56:41;;;;;;;4.53;2.60;;;20.20;53.70;;;;;;4994655;28;20045;-58
2022/12/05 08:59:07;;;;;;;4.53;2.55;;;20.10;53.70;;;;;;4995479;28;20046;-58
2022/12/05 09:01:35;;;;;;;3.80;2.17;;;20.20;53.70;;;;;;4994845;28;20046;-58
2022/12/05 09:04:03;;;;;;;5.00;2.72;;;20.20;53.70;;;;;;4994527;28;20430;-58
2022/12/05 09:06:29;;;;;;;4.93;2.67;;;20.20;53.70;;;;;;4994852;28;20520;-58
2022/12/05 09:08:58;;;;;;;4.10;2.35;;;20.20;53.70;;;;;;4995257;28;20042;-57
2022/12/05 09:11:28;;;;;;;5.63;2.60;;;20.10;53.70;;;;;;4994340;28;20043;-58
2022/12/05 09:13:57;;;;;;;5.43;2.63;;;20.10;53.60;;;;;;4995145;28;20042;-58
2022/12/05 09:16:23;;;;;;;;;;;20.20;53.60;;;;;;4995227;28;20588;-58
2022/12/05 09:18:49;;;;;;;6.90;2.63;;;20.20;53.60;;;;;;4994598;28;19922;-58
2022/12/05 09:21:22;;;;;;;4.55;2.22;;;20.20;53.70;;;;;;4994800;28;20046;-58
2022/12/05 09:23:48;;;;;;;15.70;2.78;;;20.20;53.70;;;;;;4993110;28;20509;-60
2022/12/05 09:26:15;;;;;;;8.95;2.58;;;20.20;53.80;;;;;;4994779;28;20046;-58
2022/12/05 09:28:41;;;;;;;7.25;2.78;;;20.10;53.70;;;;;;4994786;28;20054;-58
2022/12/05 09:31:11;;;;;;;9.57;2.40;;;20.10;53.70;;;;;;4993915;28;20050;-55
2022/12/05 09:33:37;;;;;;;10.68;2.78;;;20.20;54.30;;;;;;4994133;28;20413;-55
2022/12/05 09:36:04;;;;;;;21.13;3.35;;;20.20;54.50;;;;;;4994505;28;20537;-56
2022/12/05 09:38:30;;;;;;;11.20;2.60;;;20.20;54.60;;;;;;4993726;28;20118;-55
2022/12/05 09:44:21;;;;;;;8.18;2.40;;;20.20;54.40;;;;;;4994381;28;20050;-56
2022/12/05 09:46:53;;;;;;;7.40;2.20;;;20.20;54.50;;;;;;4977712;28;20046;-55
2022/12/05 09:49:18;;;;;;;5.85;2.17;;;20.20;54.30;;;;;;4950738;28;20427;-56
2022/12/05 09:51:44;;;;;;;6.13;2.55;;;20.10;54.20;;;;;;4969403;28;20043;-56
2022/12/05 09:54:11;;;;;;;8.65;2.40;;;20.10;53.80;;;;;;4982886;28;20113;-55
2022/12/05 09:56:36;;;;;;;8.10;2.95;;;20.10;53.50;;;;;;4971581;28;20394;-55
2022/12/05 09:59:02;;;;;;;5.45;2.60;;;20.10;53.50;;;;;;4968772;28;20049;-55
2022/12/05 10:01:40;;;;;;;4.88;2.22;;;20.10;53.50;;;;;;4984370;28;20030;-54
2022/12/05 10:04:30;;;;;;;6.35;2.33;;;20.10;53.80;;;;;;4969487;28;20051;-53
2022/12/05 10:06:58;;;;;;;7.53;2.17;;;20.10;54.10;;;;;;4959587;28;20051;-52
2022/12/05 10:09:55;;;;;;;5.20;2.35;;;20.10;54.20;;;;;;4973624;28;20119;-52
2022/12/05 10:12:43;;;;;;;5.22;2.38;;;20.20;54.40;;;;;;4968295;28;20050;-53
2022/12/05 10:15:11;;;;;;;7.05;2.00;;;20.20;54.40;;;;;;4951877;29;20043;-53
2022/12/05 10:17:38;;;;;;;4.30;2.45;;;20.10;54.40;;;;;;4954704;28;20051;-53
2022/12/05 10:20:28;;;;;;;6.93;2.00;;;20.10;54.50;;;;;;4952849;28;20097;-54
2022/12/05 10:22:57;;;;;;;7.97;2.55;;;20.10;54.60;;;;;;4965966;28;20061;-54
2022/12/05 10:25:23;;;;;;;9.27;2.78;;;20.10;54.40;;;;;;4963802;28;20043;-54
2022/12/05 10:27:53;;;;;;;9.57;4.38;;;20.20;54.10;;;;;;4947233;28;20096;-56
2022/12/05 10:30:21;;;;;;;8.77;3.63;;;20.20;53.70;;;;;;4968116;28;20038;-54
2022/12/05 10:32:56;;;;;;;8.20;3.67;;;20.30;53.60;;;;;;4974008;28;20047;-54
2022/12/05 10:35:25;;;;;;;10.25;4.22;;;20.30;53.40;;;;;;4972756;28;20129;-56
2022/12/05 10:37:53;;;;;;;15.80;4.70;;;20.30;53.20;;;;;;4974082;28;20094;-56
2022/12/05 10:40:18;;;;;;;12.32;4.50;;;20.30;53.80;;;;;;4972732;28;20054;-56
2022/12/05 10:42:44;;;;;;;13.25;4.13;;;20.30;53.00;;;;;;4972971;28;20159;-56
2022/12/05 10:45:40;;;;;;;9.38;3.88;;;20.30;52.90;;;;;;4971975;28;20031;-55
2022/12/05 10:48:08;;;;;;;14.10;5.57;;;20.20;52.70;;;;;;4971974;28;20154;-54
2022/12/05 10:50:37;;;;;;;;;;;20.20;52.70;;;;;;4973006;28;20085;-54
2022/12/05 10:53:03;;;;;;;10.77;5.25;;;20.20;53.40;;;;;;4972750;28;19926;-55
2022/12/05 10:55:36;;;;;;;11.02;4.60;;;20.10;52.80;;;;;;4972709;28;20054;-53
2022/12/05 10:58:22;;;;;;;9.27;4.50;;;20.20;53.00;;;;;;4972609;28;20073;-53
2022/12/05 11:00:52;;;;;;;10.88;4.90;;;20.10;53.10;;;;;;4975093;28;20077;-53
2022/12/05 11:03:25;;;;;;;9.70;4.88;;;20.10;53.20;;;;;;4979846;28;20561;-54
2022/12/05 11:05:52;;;;;;;11.60;4.45;;;20.20;53.20;;;;;;4981807;28;20045;-54
2022/12/05 11:08:28;;;;;;;8.02;4.32;;;20.10;53.20;;;;;;4982265;28;20042;-54
2022/12/05 11:11:03;;;;;;;8.02;4.82;;;20.10;53.20;;;;;;4991481;28;20581;-53
2022/12/05 11:13:29;;;;;;;11.52;4.95;;;20.10;53.30;;;;;;4992514;28;20132;-53
2022/12/05 11:15:55;;;;;;;9.95;5.10;;;20.10;53.50;;;;;;4992693;28;20133;-53
2022/12/05 11:18:23;;;;;;;9.00;5.03;;;20.10;53.30;;;;;;4990763;28;20509;-53
2022/12/05 11:20:49;;;;;;;9.60;4.90;;;20.10;53.30;;;;;;4992920;28;20046;-54
2022/12/05 11:23:21;;;;;;;8.68;4.45;;;20.10;53.30;;;;;;4990542;28;20246;-53
2022/12/05 11:25:46;;;;;;;10.23;4.63;;;20.10;53.30;;;;;;4967445;28;20059;-53
2022/12/05 11:28:15;;;;;;;10.25;4.45;;;20.10;53.20;;;;;;4969039;28;20031;-54
2022/12/05 11:30:40;;;;;;;;;;;20.10;53.00;;;;;;4970688;28;20525;-53
2022/12/05 11:33:19;;;;;;;8.18;3.90;;;20.00;52.80;;;;;;4968736;28;19922;-54
2022/12/05 11:35:45;;;;;;;7.55;4.15;;;20.10;53.00;;;;;;4971153;28;20051;-54
2022/12/05 11:38:11;;;;;;;7.30;4.00;;;20.10;52.90;;;;;;4970921;28;20471;-54
2022/12/05 11:40:53;;;;;;;6.15;3.72;;;20.10;52.90;;;;;;4971641;28;20046;-54
2022/12/05 11:43:27;;;;;;;7.38;3.63;;;20.10;53.00;;;;;;4971461;28;20114;-54
2022/12/05 11:46:01;;;;;;;6.10;3.55;;;20.00;53.00;;;;;;4971261;28;20078;-54
2022/12/05 11:48:36;;;;;;;8.10;3.50;;;20.00;53.00;;;;;;4972441;28;20054;-55
2022/12/05 11:51:31;;;;;;;8.85;3.45;;;20.10;53.20;;;;;;4971868;28;20046;-53
2022/12/05 11:54:21;;;;;;;5.95;3.03;;;20.00;53.20;;;;;;4974779;28;20109;-54
2022/12/05 11:57:03;;;;;;;8.00;3.55;;;20.10;53.50;;;;;;4980907;28;20043;-52
2022/12/05 12:00:11;;;;;;;7.68;3.47;;;20.00;53.50;;;;;;4969603;28;20379;-54
2022/12/05 12:02:51;;;;;;;5.13;2.60;;;20.10;53.70;;;;;;4971412;28;20046;-54
2022/12/05 12:05:41;;;;;;;5.47;2.80;;;20.10;53.80;;;;;;4976206;28;20065;-54
2022/12/05 12:08:23;;;;;;;6.75;2.75;;;20.10;53.70;;;;;;4976455;28;20034;-55
2022/12/05 12:11:07;;;;;;;6.97;2.78;;;20.10;53.70;;;;;;4977086;28;20050;-54
2022/12/05 12:13:57;;;;;;;6.03;2.40;;;20.10;53.60;;;;;;4975710;28;20046;-55
2022/12/05 12:16:45;;;;;;;6.18;2.47;;;20.10;53.70;;;;;;4976621;28;20047;-57
2022/12/05 12:19:20;;;;;;;6.10;2.50;;;20.10;53.80;;;;;;4980573;28;20073;-58
2022/12/05 12:22:14;;;;;;;6.63;2.30;;;20.10;53.90;;;;;;4984590;28;20441;-59
2022/12/05 12:25:05;;;;;;;4.28;2.00;;;20.20;54.00;;;;;;4975139;28;20055;-59
2022/12/05 12:27:36;;;;;;;6.57;2.63;;;20.20;54.00;;;;;;4974596;28;20043;-60
2022/12/05 12:30:23;;;;;;;5.72;2.10;;;20.20;53.90;;;;;;4976657;28;20049;-59
2022/12/05 12:33:02;;;;;;;4.85;2.15;;;20.20;54.00;;;;;;4979069;28;20121;-59
2022/12/05 12:35:31;;;;;;;6.28;2.20;;;20.20;54.00;;;;;;4981791;28;20113;-59
2022/12/05 12:38:06;;;;;;;5.22;1.83;;;20.20;54.00;;;;;;4983548;28;20035;-59
2022/12/05 12:41:06;;;;;;;6.15;1.75;;;20.20;54.10;;;;;;4984787;28;20117;-59
2022/12/05 12:43:31;;;;;;;6.38;1.95;;;20.20;54.20;;;;;;4978244;28;20102;-58
2022/12/05 12:46:29;;;;;;;5.32;1.77;;;20.20;54.20;;;;;;4984693;28;20050;-59
2022/12/05 12:49:03;;;;;;;7.40;1.80;;;20.20;54.30;;;;;;4976004;28;20411;-59
2022/12/05 12:51:35;;;;;;;5.45;2.33;;;20.20;54.40;;;;;;4982385;28;20531;-59
2022/12/05 12:54:22;;;;;;;5.53;2.05;;;20.20;54.40;;;;;;4980767;28;20035;-59
2022/12/05 12:56:54;;;;;;;3.08;1.23;;;20.20;55.10;;;;;;4982569;28;20085;-58
2022/12/05 12:59:22;;;;;;;3.75;1.48;;;20.20;55.20;;;;;;4956175;28;20047;-59
2022/12/05 13:02:10;;;;;;;5.07;1.58;;;20.20;54.40;;;;;;4955734;28;20062;-61
2022/12/05 13:04:49;;;;;;;5.30;1.70;;;20.20;54.50;;;;;;4954035;28;20046;-59
2022/12/05 13:07:25;;;;;;;3.70;1.88;;;20.20;54.60;;;;;;4969426;28;20413;-58
2022/12/05 13:10:06;;;;;;;2.97;1.52;;;20.20;54.80;;;;;;4970754;28;20038;-59
2022/12/05 13:12:33;;;;;;;5.00;1.75;;;20.20;54.80;;;;;;4983140;28;20051;-58
2022/12/05 13:15:01;;;;;;;3.47;1.33;;;20.20;54.80;;;;;;4973163;28;20042;-58